Terminal Aerodrome Forecast
Issued by NWS St Louis, MO

Home | Current Version | Previous Version | Graphics & Text | Print | Product List | Glossary On
Versions: 1 2 3 4 5 6 7 8 9 10 11 12 13 14 15 16 17 18 19 20 21 22 23 24 25 26 27 28 29 30
805
FTUS43 KLSX 270840 AAC
TAFSTL
TAF AMD
KSTL 270840Z 2709/2812 21008KT P6SM -SHRA VCTS FEW020 SCT040CB
      BKN080
      TEMPO 2709/2713 4SM SHRA BKN020
     FM271500 18014G22KT P6SM VCTS BKN040CB
     FM280000 17010KT P6SM BKN050=

USA.gov is the U.S. government's official web portal to all federal, state and local government web resources and services.